createdAt,value
2019-03-29T00:00:55.884Z,0.00
2019-03-29T00:01:55.872Z,0.00
2019-03-29T00:02:55.813Z,0.00
2019-03-29T00:03:55.802Z,0.00
2019-03-29T00:04:55.795Z,0.00
2019-03-29T00:05:55.795Z,0.00
2019-03-29T00:06:55.797Z,0.00
2019-03-29T00:07:55.763Z,0.00
2019-03-29T00:08:55.777Z,0.00
2019-03-29T00:09:55.742Z,0.00
2019-03-29T00:10:55.738Z,0.00
2019-03-29T00:11:55.733Z,0.00
2019-03-29T00:12:57.016Z,0.00
2019-03-29T00:13:55.698Z,0.00
2019-03-29T00:14:55.682Z,0.00
2019-03-29T00:15:55.671Z,0.00
2019-03-29T00:16:55.674Z,0.00
2019-03-29T00:17:55.652Z,0.00
2019-03-29T00:18:55.636Z,0.00
2019-03-29T00:19:55.626Z,0.00
2019-03-29T00:20:55.621Z,0.00
2019-03-29T00:21:55.666Z,0.00
2019-03-29T00:22:56.330Z,0.00
2019-03-29T00:24:06.162Z,0.00
2019-03-29T00:24:56.570Z,0.00
2019-03-29T00:25:55.565Z,0.00
2019-03-29T00:26:55.574Z,0.00
2019-03-29T00:27:55.544Z,0.00
2019-03-29T00:28:55.555Z,0.00
2019-03-29T00:29:55.941Z,0.00
2019-03-29T00:30:55.518Z,0.00
2019-03-29T00:31:55.522Z,0.00
2019-03-29T00:32:55.482Z,0.00
2019-03-29T00:33:55.495Z,0.00
2019-03-29T00:34:55.464Z,0.00
2019-03-29T00:35:55.452Z,0.00
2019-03-29T00:36:55.451Z,0.00
2019-03-29T00:37:55.868Z,0.00
2019-03-29T00:38:55.423Z,0.00
2019-03-29T00:39:55.420Z,0.00
2019-03-29T00:40:55.403Z,0.00
2019-03-29T00:41:55.402Z,0.00
2019-03-29T00:42:55.377Z,0.00
2019-03-29T00:43:55.362Z,0.00
2019-03-29T00:44:55.360Z,0.00
2019-03-29T00:45:55.339Z,0.00
2019-03-29T00:46:55.370Z,0.00
2019-03-29T00:47:55.398Z,0.00
2019-03-29T00:48:55.318Z,0.00
2019-03-29T00:49:55.307Z,0.00
2019-03-29T00:50:55.301Z,0.00
2019-03-29T00:51:55.323Z,0.00
2019-03-29T00:52:55.265Z,0.00
2019-03-29T00:53:55.254Z,0.00
2019-03-29T00:54:55.247Z,0.00
2019-03-29T00:55:55.235Z,0.00
2019-03-29T00:56:55.240Z,0.00
2019-03-29T00:57:55.227Z,0.00
2019-03-29T00:58:55.206Z,0.00
2019-03-29T00:59:55.190Z,0.00
2019-03-29T01:00:55.228Z,0.00
2019-03-29T01:01:55.177Z,0.00
2019-03-29T01:02:55.174Z,0.00
2019-03-29T01:03:55.165Z,0.00
2019-03-29T01:04:55.234Z,0.00
2019-03-29T01:05:55.158Z,0.00
2019-03-29T01:06:55.139Z,0.00
2019-03-29T01:08:07.098Z,0.00
2019-03-29T01:08:56.093Z,0.00
2019-03-29T01:09:55.112Z,0.00
2019-03-29T01:10:55.072Z,0.00
2019-03-29T01:11:55.074Z,0.00
2019-03-29T01:12:55.079Z,0.00
2019-03-29T01:13:55.083Z,0.00
2019-03-29T01:14:55.035Z,0.00
2019-03-29T01:15:55.023Z,0.00
2019-03-29T01:16:55.015Z,0.00
2019-03-29T01:17:55.016Z,0.00
2019-03-29T01:18:54.995Z,0.00
2019-03-29T01:19:55.932Z,0.00
2019-03-29T01:20:54.967Z,0.00
2019-03-29T01:21:54.953Z,0.00
2019-03-29T01:22:54.949Z,0.00
2019-03-29T01:23:54.937Z,0.00
2019-03-29T01:24:54.923Z,0.00
2019-03-29T01:25:54.912Z,0.00
2019-03-29T01:26:54.903Z,0.00
2019-03-29T01:27:54.901Z,0.00
2019-03-29T01:28:54.879Z,0.00
2019-03-29T01:29:54.868Z,0.00
2019-03-29T01:30:54.865Z,0.00
2019-03-29T01:31:54.850Z,0.00
2019-03-29T01:32:54.843Z,0.00
2019-03-29T01:33:54.823Z,0.00
2019-03-29T01:34:54.814Z,0.00
2019-03-29T01:35:54.848Z,0.00
2019-03-29T01:36:54.813Z,0.00
2019-03-29T01:37:54.817Z,0.00
2019-03-29T01:38:54.768Z,0.00
2019-03-29T01:39:54.761Z,0.00
2019-03-29T01:40:54.752Z,0.00
2019-03-29T01:41:54.748Z,0.00
2019-03-29T01:42:54.752Z,0.00
2019-03-29T01:43:54.751Z,0.00
2019-03-29T01:44:54.706Z,0.00
2019-03-29T01:45:54.692Z,0.00
2019-03-29T01:46:55.689Z,0.00
2019-03-29T01:47:55.388Z,0.00
2019-03-29T01:48:54.671Z,0.00
2019-03-29T01:49:54.656Z,0.00
2019-03-29T01:50:54.636Z,0.00
2019-03-29T01:51:54.626Z,0.00
2019-03-29T01:52:54.646Z,0.00
2019-03-29T01:53:54.611Z,0.00
2019-03-29T01:54:54.611Z,0.00
2019-03-29T01:55:54.585Z,0.00
2019-03-29T01:56:54.570Z,0.00
2019-03-29T01:57:54.574Z,0.00
2019-03-29T01:58:54.557Z,0.00
2019-03-29T01:59:54.544Z,0.00
2019-03-29T02:00:54.534Z,0.00
2019-03-29T02:01:55.068Z,0.00
2019-03-29T02:02:54.528Z,0.00
2019-03-29T02:03:54.500Z,0.00
2019-03-29T02:04:54.501Z,0.00
2019-03-29T02:05:54.481Z,0.00
2019-03-29T02:06:54.479Z,0.00
2019-03-29T02:07:54.484Z,0.00
2019-03-29T02:08:54.445Z,0.00
2019-03-29T02:09:54.440Z,0.00
2019-03-29T02:10:54.440Z,0.00
2019-03-29T02:11:54.461Z,0.00
2019-03-29T02:12:54.434Z,0.00
2019-03-29T02:13:54.389Z,0.00
2019-03-29T02:14:54.380Z,0.00
2019-03-29T02:15:54.371Z,0.00
2019-03-29T02:16:55.199Z,0.00
2019-03-29T02:17:54.347Z,0.00
2019-03-29T02:18:54.351Z,0.00
2019-03-29T02:19:54.326Z,0.00
2019-03-29T02:20:54.319Z,0.00
2019-03-29T02:21:54.316Z,0.00
2019-03-29T02:22:54.300Z,0.00
2019-03-29T02:23:54.298Z,0.00
2019-03-29T02:24:54.272Z,0.00
2019-03-29T02:25:54.269Z,0.00
2019-03-29T02:26:54.251Z,0.00
2019-03-29T02:27:54.257Z,0.00
2019-03-29T02:28:54.257Z,0.00
2019-03-29T02:29:54.218Z,0.00
2019-03-29T02:30:54.213Z,0.00
2019-03-29T02:31:54.239Z,0.00
2019-03-29T02:32:54.195Z,0.00
2019-03-29T02:33:54.204Z,0.00
2019-03-29T02:34:54.171Z,0.00
2019-03-29T02:35:54.178Z,0.00
2019-03-29T02:36:54.144Z,0.00
2019-03-29T02:37:54.271Z,0.00
2019-03-29T02:38:56.229Z,0.00
2019-03-29T02:39:54.833Z,0.00
2019-03-29T02:40:54.105Z,0.00
2019-03-29T02:41:54.093Z,0.00
2019-03-29T02:42:54.080Z,0.00
2019-03-29T02:43:54.086Z,0.00
2019-03-29T02:44:54.082Z,0.00
2019-03-29T02:45:54.070Z,0.00
2019-03-29T02:46:54.255Z,0.00
2019-03-29T02:47:54.039Z,0.00
2019-03-29T02:48:54.099Z,0.00
2019-03-29T02:49:54.017Z,0.00
2019-03-29T02:50:54.058Z,0.00
2019-03-29T02:51:54.027Z,0.00
2019-03-29T02:52:53.976Z,0.00
2019-03-29T02:53:54.004Z,0.00
2019-03-29T02:54:54.065Z,0.00
2019-03-29T02:55:54.075Z,0.00
2019-03-29T02:56:53.935Z,0.00
2019-03-29T02:57:53.938Z,0.00
2019-03-29T02:58:53.917Z,0.00
2019-03-29T02:59:53.901Z,0.00
2019-03-29T03:00:53.899Z,0.00
2019-03-29T03:01:53.905Z,0.00
2019-03-29T03:02:53.913Z,0.00
2019-03-29T03:03:53.876Z,0.00
2019-03-29T03:04:53.845Z,0.00
2019-03-29T03:05:53.838Z,0.00
2019-03-29T03:06:53.874Z,0.00
2019-03-29T03:07:53.831Z,0.00
2019-03-29T03:09:11.739Z,0.00
2019-03-29T03:09:54.793Z,0.00
2019-03-29T03:10:53.784Z,0.00
2019-03-29T03:11:53.782Z,0.00
2019-03-29T03:12:53.766Z,0.00
2019-03-29T03:13:53.776Z,0.00
2019-03-29T03:14:53.753Z,0.00
2019-03-29T03:15:53.738Z,0.00
2019-03-29T03:16:53.713Z,0.00
2019-03-29T03:17:53.706Z,0.00
2019-03-29T03:18:53.743Z,0.00
2019-03-29T03:19:53.694Z,0.00
2019-03-29T03:20:53.699Z,0.00
2019-03-29T03:21:53.666Z,0.00
2019-03-29T03:22:53.651Z,0.00
2019-03-29T03:23:53.652Z,0.00
2019-03-29T03:24:53.652Z,0.00
2019-03-29T03:25:53.624Z,0.00
2019-03-29T03:26:53.624Z,0.00
2019-03-29T03:27:53.609Z,0.00
2019-03-29T03:28:53.588Z,0.00
2019-03-29T03:29:53.591Z,0.00
2019-03-29T03:30:53.577Z,0.00
2019-03-29T03:31:53.559Z,0.00
2019-03-29T03:32:53.568Z,0.00
2019-03-29T03:33:53.534Z,0.00
2019-03-29T03:34:53.553Z,0.00
2019-03-29T03:35:53.518Z,0.00
2019-03-29T03:36:53.520Z,0.00
2019-03-29T03:37:53.550Z,0.00
2019-03-29T03:38:53.484Z,0.00
2019-03-29T03:39:53.486Z,0.00
2019-03-29T03:40:53.463Z,0.00
2019-03-29T03:41:53.460Z,0.00
2019-03-29T03:42:53.437Z,0.00
2019-03-29T03:43:53.432Z,0.00
2019-03-29T03:44:53.434Z,0.00
2019-03-29T03:45:53.410Z,0.00
2019-03-29T03:46:53.400Z,0.00
2019-03-29T03:47:53.402Z,0.00
2019-03-29T03:48:53.378Z,0.00
2019-03-29T03:49:53.377Z,0.00
2019-03-29T03:50:53.352Z,0.00
2019-03-29T03:51:53.357Z,0.00
2019-03-29T03:52:53.345Z,0.00
2019-03-29T03:53:53.355Z,0.00
2019-03-29T03:54:53.334Z,0.00
2019-03-29T03:55:53.300Z,0.00
2019-03-29T03:56:53.286Z,0.00
2019-03-29T03:57:57.482Z,0.00
2019-03-29T03:58:53.312Z,0.00
2019-03-29T03:59:53.276Z,0.00
2019-03-29T04:00:53.259Z,0.00
2019-03-29T04:01:53.238Z,0.00
2019-03-29T04:02:53.227Z,0.00
2019-03-29T04:03:53.227Z,0.00
2019-03-29T04:04:53.224Z,0.00
2019-03-29T04:05:53.191Z,0.00
2019-03-29T04:06:53.180Z,0.00
2019-03-29T04:07:53.177Z,0.00
2019-03-29T04:08:53.159Z,0.00
2019-03-29T04:09:53.164Z,0.00
2019-03-29T04:10:53.181Z,0.00
2019-03-29T04:11:53.126Z,0.00
2019-03-29T04:12:53.121Z,0.00
2019-03-29T04:13:53.105Z,0.00
2019-03-29T04:14:53.120Z,0.00
2019-03-29T04:15:53.096Z,0.00
2019-03-29T04:16:53.071Z,0.00
2019-03-29T04:17:53.075Z,0.00
2019-03-29T04:18:53.056Z,0.00
2019-03-29T04:19:53.051Z,0.00
2019-03-29T04:20:53.032Z,0.00
2019-03-29T04:21:53.032Z,0.00
2019-03-29T04:22:53.004Z,0.00
2019-03-29T04:23:53.002Z,0.00
2019-03-29T04:24:53.033Z,0.00
2019-03-29T04:25:52.981Z,0.00
2019-03-29T04:26:52.975Z,0.00
2019-03-29T04:27:52.984Z,0.00
2019-03-29T04:29:04.451Z,4.00
2019-03-29T04:29:54.012Z,4.00
2019-03-29T04:30:52.925Z,0.00
2019-03-29T04:31:52.926Z,4.00
2019-03-29T04:32:52.917Z,4.00
2019-03-29T04:33:52.922Z,4.00
2019-03-29T04:34:52.903Z,4.00
2019-03-29T04:35:52.874Z,4.00
2019-03-29T04:36:52.859Z,8.00
2019-03-29T04:37:52.866Z,8.00
2019-03-29T04:38:52.854Z,8.00
2019-03-29T04:40:06.184Z,12.00
2019-03-29T04:40:53.817Z,12.00
2019-03-29T04:41:52.808Z,12.00
2019-03-29T04:42:52.795Z,12.00
2019-03-29T04:43:52.787Z,16.00
2019-03-29T04:44:52.801Z,20.00
2019-03-29T04:45:52.761Z,20.00
2019-03-29T04:46:52.757Z,24.00
2019-03-29T04:47:52.744Z,24.00
2019-03-29T04:48:52.737Z,24.00
2019-03-29T04:49:52.750Z,32.00
2019-03-29T04:50:52.742Z,28.00
2019-03-29T04:51:52.701Z,32.00
2019-03-29T04:52:52.701Z,36.00
2019-03-29T04:53:52.683Z,40.00
2019-03-29T04:54:52.671Z,44.00
2019-03-29T04:55:52.680Z,48.00
2019-03-29T04:56:52.644Z,56.00
2019-03-29T04:57:52.635Z,64.00
2019-03-29T04:58:52.625Z,72.00
2019-03-29T04:59:52.613Z,76.00
2019-03-29T05:00:52.622Z,88.00
2019-03-29T05:01:52.603Z,88.00
2019-03-29T05:02:52.580Z,96.00
2019-03-29T05:03:52.579Z,100.00
2019-03-29T05:04:52.561Z,108.00
2019-03-29T05:05:52.597Z,112.00
2019-03-29T05:06:52.542Z,124.00
2019-03-29T05:07:52.541Z,128.00
2019-03-29T05:08:52.515Z,136.00
2019-03-29T05:09:52.513Z,140.00
2019-03-29T05:10:52.521Z,140.00
2019-03-29T05:11:52.485Z,144.00
2019-03-29T05:12:52.487Z,148.00
2019-03-29T05:13:52.475Z,152.00
2019-03-29T05:14:52.455Z,164.00
2019-03-29T05:15:52.459Z,184.00
2019-03-29T05:16:52.434Z,204.00
2019-03-29T05:17:52.426Z,220.00
2019-03-29T05:18:52.429Z,240.00
2019-03-29T05:20:01.715Z,260.00
2019-03-29T05:20:52.389Z,280.00
2019-03-29T05:21:52.388Z,292.00
2019-03-29T05:22:52.360Z,304.00
2019-03-29T05:23:52.351Z,316.00
2019-03-29T05:24:52.339Z,324.00
2019-03-29T05:25:52.340Z,324.00
2019-03-29T05:26:52.320Z,328.00
2019-03-29T05:27:52.307Z,332.00
2019-03-29T05:28:52.302Z,332.00
2019-03-29T05:29:52.283Z,328.00
2019-03-29T05:30:53.219Z,336.00
2019-03-29T05:31:53.682Z,340.00
2019-03-29T05:32:52.256Z,356.00
2019-03-29T05:33:52.241Z,368.00
2019-03-29T05:34:52.240Z,380.00
2019-03-29T05:35:52.231Z,396.00
2019-03-29T05:36:52.210Z,404.00
2019-03-29T05:37:52.198Z,400.00
2019-03-29T05:38:52.188Z,400.00
2019-03-29T05:39:52.178Z,400.00
2019-03-29T05:40:52.181Z,400.00
2019-03-29T05:41:52.156Z,412.00
2019-03-29T05:42:52.172Z,424.00
2019-03-29T05:43:52.138Z,440.00
2019-03-29T05:44:52.123Z,452.00
2019-03-29T05:45:52.127Z,468.00
2019-03-29T05:46:52.106Z,480.00
2019-03-29T05:47:52.092Z,496.00
2019-03-29T05:48:52.083Z,504.00
2019-03-29T05:49:52.103Z,516.00
2019-03-29T05:50:52.067Z,524.00
2019-03-29T05:51:52.048Z,536.00
2019-03-29T05:52:52.039Z,544.00
2019-03-29T05:53:52.026Z,556.00
2019-03-29T05:54:52.016Z,568.00
2019-03-29T05:55:52.021Z,580.00
2019-03-29T05:56:52.001Z,596.00
2019-03-29T05:57:51.986Z,612.00
2019-03-29T05:58:51.985Z,640.00
2019-03-29T05:59:51.966Z,660.00
2019-03-29T06:00:51.967Z,684.00
2019-03-29T06:01:51.942Z,696.00
2019-03-29T06:02:51.936Z,708.00
2019-03-29T06:03:51.923Z,728.00
2019-03-29T06:04:51.915Z,756.00
2019-03-29T06:05:51.912Z,760.00
2019-03-29T06:06:51.887Z,752.00
2019-03-29T06:07:51.877Z,760.00
2019-03-29T06:08:51.866Z,764.00
2019-03-29T06:09:51.857Z,768.00
2019-03-29T06:10:51.854Z,776.00
2019-03-29T06:11:51.833Z,788.00
2019-03-29T06:12:51.825Z,796.00
2019-03-29T06:13:51.814Z,808.00
2019-03-29T06:14:51.835Z,812.00
2019-03-29T06:15:51.799Z,816.00
2019-03-29T06:16:51.784Z,832.00
2019-03-29T06:17:51.768Z,836.00
2019-03-29T06:18:51.759Z,844.00
2019-03-29T06:19:51.749Z,856.00
2019-03-29T06:20:51.737Z,892.00
2019-03-29T06:21:51.735Z,896.00
2019-03-29T06:22:51.716Z,892.00
2019-03-29T06:23:51.706Z,896.00
2019-03-29T06:24:51.695Z,920.00
2019-03-29T06:25:51.685Z,932.00
2019-03-29T06:26:51.686Z,964.00
2019-03-29T06:27:51.666Z,964.00
2019-03-29T06:28:51.650Z,968.00
2019-03-29T06:29:51.641Z,976.00
2019-03-29T06:30:51.631Z,976.00
2019-03-29T06:31:51.628Z,976.00
2019-03-29T06:32:51.609Z,980.00
2019-03-29T06:33:51.606Z,1008.00
2019-03-29T06:34:51.586Z,1036.00
2019-03-29T06:35:51.590Z,1072.00
2019-03-29T06:36:51.576Z,1088.00
2019-03-29T06:37:51.555Z,1112.00
2019-03-29T06:38:51.542Z,1132.00
2019-03-29T06:39:51.532Z,1160.00
2019-03-29T06:41:02.107Z,1180.00
2019-03-29T06:41:52.534Z,1192.00
2019-03-29T06:42:51.499Z,1172.00
2019-03-29T06:43:51.489Z,1184.00
2019-03-29T06:44:51.477Z,1164.00
2019-03-29T06:45:51.467Z,1148.00
2019-03-29T06:46:51.463Z,1096.00
2019-03-29T06:47:51.446Z,1084.00
2019-03-29T06:48:51.432Z,1112.00
2019-03-29T06:49:51.420Z,1148.00
2019-03-29T06:50:51.635Z,1124.00
2019-03-29T06:51:51.409Z,1136.00
2019-03-29T06:52:51.390Z,1208.00
2019-03-29T06:53:52.703Z,1316.00
2019-03-29T06:54:51.366Z,1356.00
2019-03-29T06:55:51.362Z,1352.00
2019-03-29T06:56:51.354Z,1344.00
2019-03-29T06:57:51.332Z,1388.00
2019-03-29T06:58:51.323Z,1424.00
2019-03-29T06:59:51.311Z,1448.00
2019-03-29T07:00:51.302Z,1460.00
2019-03-29T07:01:51.302Z,1496.00
2019-03-29T07:02:51.278Z,1536.00
2019-03-29T07:03:51.268Z,1544.00
2019-03-29T07:04:51.266Z,1548.00
2019-03-29T07:05:51.245Z,1504.00
2019-03-29T07:06:51.271Z,1440.00
2019-03-29T07:07:51.224Z,1384.00
2019-03-29T07:08:51.215Z,1372.00
2019-03-29T07:09:51.203Z,1384.00
2019-03-29T07:10:51.193Z,1432.00
2019-03-29T07:11:51.189Z,1472.00
2019-03-29T07:12:51.170Z,1444.00
2019-03-29T07:13:57.501Z,1432.00
2019-03-29T07:14:52.149Z,1424.00
2019-03-29T07:15:51.148Z,1440.00
2019-03-29T07:16:51.141Z,1460.00
2019-03-29T07:17:51.118Z,1460.00
2019-03-29T07:18:51.104Z,1476.00
2019-03-29T07:19:51.097Z,1480.00
2019-03-29T07:20:51.088Z,1452.00
2019-03-29T07:21:51.085Z,1448.00
2019-03-29T07:22:51.063Z,1388.00
2019-03-29T07:23:51.050Z,1372.00
2019-03-29T07:24:51.038Z,1428.00
2019-03-29T07:25:51.031Z,1460.00
2019-03-29T07:26:51.041Z,1440.00
2019-03-29T07:27:52.329Z,1404.00
2019-03-29T07:28:50.996Z,1384.00
2019-03-29T07:29:50.985Z,1372.00
2019-03-29T07:30:50.977Z,1356.00
2019-03-29T07:31:53.170Z,1324.00
2019-03-29T07:32:50.953Z,1304.00
2019-03-29T07:33:50.956Z,1312.00
2019-03-29T07:34:50.932Z,1308.00
2019-03-29T07:35:50.920Z,1304.00
2019-03-29T07:36:50.923Z,1316.00
2019-03-29T07:37:50.904Z,1332.00
2019-03-29T07:38:50.908Z,1352.00
2019-03-29T07:39:53.732Z,1372.00
2019-03-29T07:40:50.875Z,1388.00
2019-03-29T07:41:50.864Z,1408.00
2019-03-29T07:42:50.847Z,1424.00
2019-03-29T07:43:50.840Z,1424.00
2019-03-29T07:44:50.827Z,1396.00
2019-03-29T07:45:50.844Z,1376.00
2019-03-29T07:46:50.811Z,1400.00
2019-03-29T07:47:50.793Z,1432.00
2019-03-29T07:48:50.782Z,1460.00
2019-03-29T07:49:50.771Z,1492.00
2019-03-29T07:50:50.763Z,1512.00
2019-03-29T07:51:50.757Z,1560.00
2019-03-29T07:52:50.803Z,1616.00
2019-03-29T07:53:50.725Z,1668.00
2019-03-29T07:54:50.725Z,1724.00
2019-03-29T07:55:50.708Z,1784.00
2019-03-29T07:56:50.710Z,1840.00
2019-03-29T07:57:50.685Z,1872.00
2019-03-29T07:58:50.727Z,1912.00
2019-03-29T07:59:50.841Z,1944.00
2019-03-29T08:00:50.651Z,1976.00
2019-03-29T08:01:50.664Z,2032.00
2019-03-29T08:02:50.631Z,2092.00
2019-03-29T08:03:51.375Z,2120.00
2019-03-29T08:04:51.288Z,2132.00
2019-03-29T08:05:50.606Z,2144.00
2019-03-29T08:06:50.599Z,2168.00
2019-03-29T08:07:50.583Z,2168.00
2019-03-29T08:08:50.569Z,2172.00
2019-03-29T08:09:50.571Z,2216.00
2019-03-29T08:10:53.612Z,2256.00
2019-03-29T08:11:50.532Z,2284.00
2019-03-29T08:12:50.537Z,2316.00
2019-03-29T08:13:50.531Z,2328.00
2019-03-29T08:14:50.502Z,2324.00
2019-03-29T08:15:50.489Z,2316.00
2019-03-29T08:16:50.477Z,2284.00
2019-03-29T08:17:50.483Z,2260.00
2019-03-29T08:18:50.459Z,2248.00
2019-03-29T08:20:13.038Z,2224.00
2019-03-29T08:20:51.436Z,2216.00
2019-03-29T08:21:50.431Z,2180.00
2019-03-29T08:22:50.458Z,2160.00
2019-03-29T08:23:50.407Z,2152.00
2019-03-29T08:24:50.400Z,2156.00
2019-03-29T08:25:50.387Z,2172.00
2019-03-29T08:26:50.372Z,2196.00
2019-03-29T08:27:50.372Z,2240.00
2019-03-29T08:28:50.356Z,2292.00
2019-03-29T08:29:50.340Z,2328.00
2019-03-29T08:30:50.327Z,2384.00
2019-03-29T08:31:50.320Z,2436.00
2019-03-29T08:32:50.317Z,2456.00
2019-03-29T08:33:50.297Z,2452.00
2019-03-29T08:34:50.290Z,2432.00
2019-03-29T08:35:50.276Z,2392.00
2019-03-29T08:36:50.346Z,2372.00
2019-03-29T08:37:50.261Z,2364.00
2019-03-29T08:38:50.246Z,2368.00
2019-03-29T08:39:50.230Z,2356.00
2019-03-29T08:40:50.222Z,2376.00
2019-03-29T08:42:00.006Z,2352.00
2019-03-29T08:42:51.223Z,2344.00
2019-03-29T08:43:50.188Z,2312.00
2019-03-29T08:44:50.196Z,2252.00
2019-03-29T08:45:50.169Z,2252.00
2019-03-29T08:46:50.158Z,2256.00
2019-03-29T08:47:50.156Z,2248.00
2019-03-29T08:48:50.135Z,2252.00
2019-03-29T08:49:50.124Z,2236.00
2019-03-29T08:50:50.120Z,2184.00
2019-03-29T08:51:50.114Z,2148.00
2019-03-29T08:52:50.138Z,2108.00
2019-03-29T08:53:50.081Z,2112.00
2019-03-29T08:54:51.328Z,2240.00
2019-03-29T08:55:50.063Z,2204.00
2019-03-29T08:56:50.053Z,2108.00
2019-03-29T08:57:50.046Z,2076.00
2019-03-29T08:58:50.029Z,2044.00
2019-03-29T08:59:50.018Z,2056.00
2019-03-29T09:00:50.011Z,2148.00
2019-03-29T09:01:49.995Z,2356.00
2019-03-29T09:02:49.993Z,2460.00
2019-03-29T09:04:02.835Z,2568.00
2019-03-29T09:04:50.964Z,2688.00
2019-03-29T09:05:49.956Z,2688.00
2019-03-29T09:06:53.605Z,2732.00
2019-03-29T09:07:49.946Z,2856.00
2019-03-29T09:08:49.927Z,2864.00
2019-03-29T09:09:49.909Z,2856.00
2019-03-29T09:10:49.902Z,2780.00
2019-03-29T09:11:49.891Z,2656.00
2019-03-29T09:12:49.897Z,2532.00
2019-03-29T09:13:49.866Z,2476.00
2019-03-29T09:14:50.274Z,2372.00
2019-03-29T09:15:49.845Z,2228.00
2019-03-29T09:16:49.840Z,2240.00
2019-03-29T09:17:49.833Z,2288.00
2019-03-29T09:18:49.815Z,2344.00
2019-03-29T09:19:49.803Z,2268.00
2019-03-29T09:20:49.878Z,2204.00
2019-03-29T09:21:49.780Z,2200.00
2019-03-29T09:22:49.781Z,2168.00
2019-03-29T09:23:49.757Z,2268.00
2019-03-29T09:24:49.766Z,2440.00
2019-03-29T09:25:49.735Z,2340.00
2019-03-29T09:26:49.727Z,2320.00
2019-03-29T09:27:49.769Z,2460.00
2019-03-29T09:28:49.703Z,2464.00
2019-03-29T09:29:49.694Z,2428.00
2019-03-29T09:30:49.683Z,2396.00
2019-03-29T09:31:49.677Z,2336.00
2019-03-29T09:32:51.454Z,2252.00
2019-03-29T09:33:49.660Z,2212.00
2019-03-29T09:34:49.641Z,2236.00
2019-03-29T09:35:49.633Z,2240.00
2019-03-29T09:36:49.621Z,2264.00
2019-03-29T09:37:49.608Z,2268.00
2019-03-29T09:38:49.647Z,2236.00
2019-03-29T09:39:49.603Z,2288.00
2019-03-29T09:40:58.224Z,2356.00
2019-03-29T09:41:50.571Z,2360.00
2019-03-29T09:42:55.716Z,2348.00
2019-03-29T09:43:54.055Z,2316.00
2019-03-29T09:44:49.532Z,2324.00
2019-03-29T09:45:49.519Z,2356.00
2019-03-29T09:46:49.512Z,2408.00
2019-03-29T09:47:49.499Z,2420.00
2019-03-29T09:48:49.500Z,2400.00
2019-03-29T09:49:49.482Z,2476.00
2019-03-29T09:50:50.874Z,2520.00
2019-03-29T09:51:49.457Z,2448.00
2019-03-29T09:52:51.411Z,2340.00
2019-03-29T09:53:49.444Z,2260.00
2019-03-29T09:54:49.453Z,2284.00
2019-03-29T09:55:49.413Z,2352.00
2019-03-29T09:56:49.401Z,2320.00
2019-03-29T09:57:49.390Z,2280.00
2019-03-29T09:58:49.796Z,2260.00
2019-03-29T09:59:49.370Z,2272.00
2019-03-29T10:00:49.361Z,2388.00
2019-03-29T10:01:49.348Z,2436.00
2019-03-29T10:02:49.336Z,2448.00
2019-03-29T10:03:49.343Z,2468.00
2019-03-29T10:04:49.322Z,2540.00
2019-03-29T10:05:49.305Z,2612.00
2019-03-29T10:06:49.329Z,2672.00
2019-03-29T10:07:49.292Z,2712.00
2019-03-29T10:08:49.284Z,2732.00
2019-03-29T10:09:49.274Z,2736.00
2019-03-29T10:10:49.250Z,2760.00
2019-03-29T10:11:49.242Z,2812.00
2019-03-29T10:12:49.229Z,2848.00
2019-03-29T10:13:49.231Z,2864.00
2019-03-29T10:14:49.207Z,2856.00
2019-03-29T10:15:51.334Z,2884.00
2019-03-29T10:16:49.193Z,2900.00
2019-03-29T10:17:49.175Z,2904.00
2019-03-29T10:18:49.177Z,2920.00
2019-03-29T10:19:49.974Z,2952.00
2019-03-29T10:20:49.145Z,2976.00
2019-03-29T10:21:49.133Z,3004.00
2019-03-29T10:22:49.126Z,3040.00
2019-03-29T10:23:49.133Z,3076.00
2019-03-29T10:24:49.103Z,3136.00
2019-03-29T10:25:49.088Z,3132.00
2019-03-29T10:26:49.080Z,3124.00
2019-03-29T10:27:49.068Z,3160.00
2019-03-29T10:28:49.083Z,3184.00
2019-03-29T10:29:49.049Z,3216.00
2019-03-29T10:30:49.034Z,3280.00
2019-03-29T10:31:49.023Z,3352.00
2019-03-29T10:32:49.031Z,3460.00
2019-03-29T10:33:49.468Z,3600.00
2019-03-29T10:34:48.991Z,3736.00
2019-03-29T10:35:53.028Z,3848.00
2019-03-29T10:36:49.015Z,3964.00
2019-03-29T10:37:48.957Z,4140.00
2019-03-29T10:38:48.955Z,4284.00
2019-03-29T10:39:48.945Z,4464.00
2019-03-29T10:40:48.930Z,4540.00
2019-03-29T10:41:48.921Z,4520.00
2019-03-29T10:42:57.681Z,4492.00
2019-03-29T10:43:49.903Z,4468.00
2019-03-29T10:44:49.516Z,4548.00
2019-03-29T10:45:48.880Z,4616.00
2019-03-29T10:46:48.860Z,4756.00
2019-03-29T10:47:48.850Z,4956.00
2019-03-29T10:48:48.850Z,5024.00
2019-03-29T10:49:48.833Z,5024.00
2019-03-29T10:50:48.819Z,5068.00
2019-03-29T10:51:48.848Z,5128.00
2019-03-29T10:52:48.797Z,5104.00
2019-03-29T10:53:48.794Z,4872.00
2019-03-29T10:54:50.062Z,4696.00
2019-03-29T10:55:48.765Z,4560.00
2019-03-29T10:56:48.753Z,4604.00
2019-03-29T10:57:48.747Z,4668.00
2019-03-29T10:58:48.752Z,5156.00
2019-03-29T10:59:48.721Z,5600.00
2019-03-29T11:00:48.801Z,5956.00
2019-03-29T11:01:48.700Z,5800.00
2019-03-29T11:02:48.687Z,5424.00
2019-03-29T11:03:48.702Z,5116.00
2019-03-29T11:04:48.667Z,4964.00
2019-03-29T11:05:48.657Z,4856.00
2019-03-29T11:06:48.647Z,4668.00
2019-03-29T11:07:48.639Z,4240.00
2019-03-29T11:08:48.633Z,3772.00
2019-03-29T11:09:48.628Z,3440.00
2019-03-29T11:10:48.600Z,3228.00
2019-03-29T11:11:48.590Z,3088.00
2019-03-29T11:12:48.580Z,3092.00
2019-03-29T11:13:48.568Z,3152.00
2019-03-29T11:14:48.582Z,3332.00
2019-03-29T11:15:48.553Z,3640.00
2019-03-29T11:16:48.537Z,3680.00
2019-03-29T11:17:48.527Z,3600.00
2019-03-29T11:18:48.516Z,3372.00
2019-03-29T11:19:48.531Z,3200.00
2019-03-29T11:20:48.497Z,3012.00
2019-03-29T11:21:48.484Z,2896.00
2019-03-29T11:22:48.472Z,2800.00
2019-03-29T11:23:48.460Z,2716.00
2019-03-29T11:24:48.461Z,2648.00
2019-03-29T11:25:49.019Z,2612.00
2019-03-29T11:26:48.467Z,2600.00
2019-03-29T11:27:48.418Z,2580.00
2019-03-29T11:28:48.410Z,2460.00
2019-03-29T11:29:48.413Z,2348.00
2019-03-29T11:30:48.385Z,2260.00
2019-03-29T11:31:48.377Z,2184.00
2019-03-29T11:32:48.366Z,2116.00
2019-03-29T11:33:48.357Z,2084.00
2019-03-29T11:34:48.352Z,2144.00
2019-03-29T11:35:48.331Z,2312.00
2019-03-29T11:36:48.321Z,2436.00
2019-03-29T11:37:48.315Z,2468.00
2019-03-29T11:38:48.302Z,2516.00
2019-03-29T11:39:48.298Z,2588.00
2019-03-29T11:40:48.278Z,2696.00
2019-03-29T11:41:48.268Z,2860.00
2019-03-29T11:42:48.257Z,3028.00
2019-03-29T11:43:48.247Z,3120.00
2019-03-29T11:44:48.249Z,3248.00
2019-03-29T11:45:48.222Z,3380.00
2019-03-29T11:46:48.258Z,3732.00
2019-03-29T11:47:48.201Z,4136.00
2019-03-29T11:48:48.190Z,4308.00
2019-03-29T11:49:48.190Z,4300.00
2019-03-29T11:50:48.170Z,4232.00
2019-03-29T11:51:48.157Z,4292.00
2019-03-29T11:52:48.150Z,4348.00
2019-03-29T11:53:50.819Z,4184.00
2019-03-29T11:54:48.134Z,3948.00
2019-03-29T11:55:48.116Z,3780.00
2019-03-29T11:56:48.104Z,3532.00
2019-03-29T11:57:48.096Z,3344.00
2019-03-29T11:58:48.082Z,3184.00
2019-03-29T11:59:48.079Z,3044.00
2019-03-29T12:00:48.060Z,2976.00
2019-03-29T12:01:48.080Z,2960.00
2019-03-29T12:02:48.041Z,2988.00
2019-03-29T12:03:48.029Z,3016.00
2019-03-29T12:04:48.030Z,2964.00
2019-03-29T12:05:48.055Z,2884.00
2019-03-29T12:06:48.000Z,2904.00
2019-03-29T12:07:47.991Z,2952.00
2019-03-29T12:08:47.974Z,2964.00
2019-03-29T12:09:47.975Z,2976.00
2019-03-29T12:10:47.954Z,3008.00
2019-03-29T12:11:47.944Z,2968.00
2019-03-29T12:12:47.949Z,2928.00
2019-03-29T12:13:47.926Z,3016.00
2019-03-29T12:14:47.921Z,3116.00
2019-03-29T12:15:47.898Z,3304.00
2019-03-29T12:16:47.903Z,3476.00
2019-03-29T12:17:47.879Z,3652.00
2019-03-29T12:18:47.866Z,3836.00
2019-03-29T12:19:47.870Z,3932.00
2019-03-29T12:20:47.848Z,4132.00
2019-03-29T12:21:47.836Z,4248.00
2019-03-29T12:22:47.825Z,4264.00
2019-03-29T12:23:47.815Z,4036.00
2019-03-29T12:24:47.812Z,3784.00
2019-03-29T12:25:47.792Z,3536.00
2019-03-29T12:26:47.779Z,3256.00
2019-03-29T12:27:47.769Z,2948.00
2019-03-29T12:28:47.759Z,2720.00
2019-03-29T12:29:47.761Z,2580.00
2019-03-29T12:30:47.739Z,2484.00
2019-03-29T12:31:47.725Z,2416.00
2019-03-29T12:32:47.716Z,2372.00
2019-03-29T12:33:47.704Z,2268.00
2019-03-29T12:34:47.726Z,2188.00
2019-03-29T12:35:47.682Z,2108.00